createdAt,value
2023-03-31T00:00:23.234Z,99140.41
2023-03-31T00:02:50.307Z,99134.22
2023-03-31T00:05:18.151Z,99133.81
2023-03-31T00:07:46.199Z,99125.56
2023-03-31T00:10:17.944Z,99128.03
2023-03-31T00:12:47.932Z,99117.34
2023-03-31T00:15:14.884Z,99110.16
2023-03-31T00:17:43.447Z,99102.97
2023-03-31T00:20:12.314Z,99087.78
2023-03-31T00:22:42.304Z,99093.09
2023-03-31T00:25:16.696Z,99091.25
2023-03-31T00:27:45.216Z,99083.25
2023-03-31T00:30:14.665Z,99081.38
2023-03-31T00:32:42.225Z,99067.22
2023-03-31T00:35:09.854Z,99070.69
2023-03-31T00:37:36.902Z,99060.84
2023-03-31T00:40:09.277Z,99067.22
2023-03-31T00:42:44.053Z,99063.50
2023-03-31T00:45:19.440Z,99061.88
2023-03-31T00:48:15.130Z,99068.03
2023-03-31T00:50:53.368Z,99074.19
2023-03-31T00:53:27.002Z,99068.84
2023-03-31T00:56:00.460Z,99068.84
2023-03-31T00:58:28.262Z,99053.41
2023-03-31T01:00:58.228Z,99048.88
2023-03-31T01:03:25.418Z,99040.06
2023-03-31T01:05:57.808Z,99039.03
2023-03-31T01:08:28.319Z,99037.16
2023-03-31T01:11:01.749Z,99031.00
2023-03-31T01:13:30.359Z,99013.13
2023-03-31T01:15:57.456Z,99017.66
2023-03-31T01:18:28.966Z,99004.28
2023-03-31T01:21:33.781Z,99005.09
2023-03-31T01:24:47.500Z,98997.31
2023-03-31T01:27:48.885Z,99014.38
2023-03-31T01:30:45.296Z,99030.41
2023-03-31T01:33:58.561Z,99026.94
2023-03-31T01:37:15.906Z,99027.75
2023-03-31T01:40:19.762Z,99003.91
2023-03-31T01:43:12.886Z,98995.69
2023-03-31T01:45:44.211Z,98988.94
2023-03-31T01:48:21.091Z,98991.59
2023-03-31T01:51:03.091Z,98973.91
2023-03-31T01:54:23.527Z,98972.69
2023-03-31T01:56:58.499Z,98965.09
2023-03-31T01:59:49.891Z,98964.09
2023-03-31T02:02:27.546Z,98948.06
2023-03-31T02:05:17.985Z,98954.41
2023-03-31T02:08:18.475Z,98950.91
2023-03-31T02:10:46.985Z,98955.44
2023-03-31T02:13:19.949Z,98943.94
2023-03-31T02:15:53.051Z,98937.78
2023-03-31T02:18:26.244Z,98940.69
2023-03-31T02:20:57.369Z,98939.88
2023-03-31T02:23:31.614Z,98934.53
2023-03-31T02:26:19.073Z,98932.91
2023-03-31T02:28:46.526Z,98927.56
2023-03-31T02:31:41.522Z,98922.22
2023-03-31T02:34:08.641Z,98902.09
2023-03-31T02:36:36.661Z,98898.59
2023-03-31T02:39:12.461Z,98888.97
2023-03-31T02:41:39.505Z,98870.50
2023-03-31T02:44:06.549Z,98872.34
2023-03-31T02:46:33.777Z,98877.06
2023-03-31T02:49:04.523Z,98866.38
2023-03-31T02:52:28.342Z,98853.25
2023-03-31T02:55:17.136Z,98845.72
2023-03-31T02:58:13.029Z,98839.56
2023-03-31T03:00:56.733Z,98829.88
2023-03-31T03:03:53.172Z,98820.25
2023-03-31T03:06:53.649Z,98807.94
2023-03-31T03:10:01.007Z,98800.97
2023-03-31T03:12:58.789Z,98779.03
2023-03-31T03:15:36.121Z,98769.38
2023-03-31T03:18:05.645Z,98776.53
2023-03-31T03:20:35.875Z,98774.09
2023-03-31T03:23:02.889Z,98766.09
2023-03-31T03:25:30.303Z,98758.09
2023-03-31T03:27:57.275Z,98754.59
2023-03-31T03:30:24.217Z,98745.78
2023-03-31T03:32:51.194Z,98735.09
2023-03-31T03:35:18.366Z,98736.16
2023-03-31T03:37:45.424Z,98734.28
2023-03-31T03:40:12.873Z,98715.84
2023-03-31T03:42:39.882Z,98711.31
2023-03-31T03:45:07.917Z,98710.50
2023-03-31T03:47:36.139Z,98704.34
2023-03-31T03:50:04.722Z,98693.66
2023-03-31T03:52:32.098Z,98658.97
2023-03-31T03:54:59.052Z,98655.25
2023-03-31T03:57:26.282Z,98654.44
2023-03-31T03:59:53.394Z,98650.13
2023-03-31T04:02:20.497Z,98648.47
2023-03-31T04:04:47.884Z,98652.19
2023-03-31T04:07:15.474Z,98663.09
2023-03-31T04:09:42.472Z,98659.63
2023-03-31T04:12:09.416Z,98664.97
2023-03-31T04:14:36.386Z,98663.34
2023-03-31T04:17:03.500Z,98659.63
2023-03-31T04:19:31.056Z,98660.66
2023-03-31T04:22:02.750Z,98652.66
2023-03-31T04:24:33.266Z,98647.31
2023-03-31T04:27:02.768Z,98633.97
2023-03-31T04:29:33.453Z,98630.50
2023-03-31T04:32:01.467Z,98622.25
2023-03-31T04:34:34.734Z,98624.91
2023-03-31T04:37:02.905Z,98610.53
2023-03-31T04:39:30.821Z,98602.53
2023-03-31T04:42:00.018Z,98599.03
2023-03-31T04:44:27.635Z,98589.75
2023-03-31T04:46:55.570Z,98601.47
2023-03-31T04:49:22.856Z,98594.28
2023-03-31T04:51:50.345Z,98587.09
2023-03-31T04:54:17.475Z,98595.09
2023-03-31T04:56:44.523Z,98600.44
2023-03-31T04:59:11.587Z,98597.75
2023-03-31T05:01:38.631Z,98589.75
2023-03-31T05:04:06.286Z,98600.44
2023-03-31T05:06:33.784Z,98595.94
2023-03-31T05:09:00.830Z,98590.59
2023-03-31T05:11:28.875Z,98605.78
2023-03-31T05:13:56.735Z,98595.09
2023-03-31T05:16:23.716Z,98598.81
2023-03-31T05:18:50.706Z,98616.44
2023-03-31T05:21:20.694Z,98612.38
2023-03-31T05:23:48.838Z,98617.38
2023-03-31T05:26:16.301Z,98615.78
2023-03-31T05:30:28.464Z,98606.25
2023-03-31T05:32:59.883Z,98594.84
2023-03-31T05:35:27.690Z,98589.13
2023-03-31T05:37:55.216Z,98564.13
2023-03-31T05:40:22.219Z,98557.25
2023-03-31T05:42:49.168Z,98553.16
2023-03-31T05:45:16.627Z,98557.31
2023-03-31T05:47:43.649Z,98550.56
2023-03-31T05:50:12.590Z,98543.59
2023-03-31T05:52:41.536Z,98535.25
2023-03-31T05:55:09.414Z,98530.13
2023-03-31T05:57:36.354Z,98522.81
2023-03-31T06:00:06.281Z,98514.19
2023-03-31T06:02:33.711Z,98510.13
2023-03-31T06:05:00.851Z,98501.53
2023-03-31T06:07:27.837Z,98487.41
2023-03-31T06:09:54.801Z,98487.59
2023-03-31T06:12:21.779Z,98484.34
2023-03-31T06:14:48.688Z,98468.59
2023-03-31T06:17:15.800Z,98465.91
2023-03-31T06:19:42.833Z,98454.22
2023-03-31T06:22:09.866Z,98461.16
2023-03-31T06:24:36.829Z,98463.03
2023-03-31T06:27:04.017Z,98475.31
2023-03-31T06:29:31.045Z,98461.78
2023-03-31T06:31:58.606Z,98456.44
2023-03-31T06:34:25.688Z,98448.44
2023-03-31T06:36:53.325Z,98426.66
2023-03-31T06:39:20.369Z,98406.97
2023-03-31T06:41:47.317Z,98382.53
2023-03-31T06:44:24.426Z,98378.00
2023-03-31T06:46:51.399Z,98405.72
2023-03-31T06:49:18.319Z,98419.84
2023-03-31T06:51:45.258Z,98423.09
2023-03-31T06:54:12.669Z,98430.06
2023-03-31T06:56:39.705Z,98425.09
2023-03-31T06:59:06.759Z,98415.59
2023-03-31T07:01:37.314Z,98424.19
2023-03-31T07:04:04.879Z,98430.47
2023-03-31T07:06:31.909Z,98431.88
2023-03-31T07:08:59.102Z,98444.53
2023-03-31T07:11:26.254Z,98442.00
2023-03-31T07:13:53.177Z,98430.94
2023-03-31T07:16:20.239Z,98405.88
2023-03-31T07:18:47.227Z,98417.69
2023-03-31T07:21:14.311Z,98416.44
2023-03-31T07:23:41.445Z,98413.53
2023-03-31T07:26:08.539Z,98418.41
2023-03-31T07:28:35.597Z,98419.03
2023-03-31T07:31:02.527Z,98415.44
2023-03-31T07:33:29.474Z,98425.66
2023-03-31T07:36:08.249Z,98438.31
2023-03-31T07:38:41.112Z,98434.94
2023-03-31T07:41:12.373Z,98434.50
2023-03-31T07:43:39.833Z,98437.31
2023-03-31T07:46:08.302Z,98441.72
2023-03-31T07:48:35.568Z,98427.66
2023-03-31T07:51:02.497Z,98425.94
2023-03-31T07:53:34.482Z,98417.25
2023-03-31T07:56:01.537Z,98426.19
2023-03-31T07:58:29.061Z,98434.31
2023-03-31T08:00:56.163Z,98444.31
2023-03-31T08:03:23.145Z,98443.88
2023-03-31T08:05:53.562Z,98445.25
2023-03-31T08:08:21.177Z,98446.53
2023-03-31T08:10:48.931Z,98432.34
2023-03-31T08:13:15.898Z,98435.00
2023-03-31T08:15:43.016Z,98432.34
2023-03-31T08:18:10.345Z,98427.59
2023-03-31T08:20:39.239Z,98431.66
2023-03-31T08:23:08.993Z,98423.41
2023-03-31T08:25:35.949Z,98417.59
2023-03-31T08:28:02.897Z,98414.25
2023-03-31T08:30:29.808Z,98421.53
2023-03-31T08:32:56.786Z,98421.09
2023-03-31T08:35:23.792Z,98408.88
2023-03-31T08:37:50.800Z,98398.28
2023-03-31T08:40:24.099Z,98409.09
2023-03-31T08:42:57.172Z,98399.09
2023-03-31T08:45:39.535Z,98399.22
2023-03-31T08:48:25.724Z,98404.06
2023-03-31T08:51:32.186Z,98403.13
2023-03-31T08:54:15.045Z,98414.19
2023-03-31T08:56:47.223Z,98416.94
2023-03-31T08:59:34.547Z,98418.44
2023-03-31T09:02:13.320Z,98403.56
2023-03-31T09:04:51.664Z,98395.09
2023-03-31T09:07:45.741Z,98403.78
2023-03-31T09:10:58.436Z,98388.72
2023-03-31T09:13:53.297Z,98426.84
2023-03-31T09:16:25.883Z,98403.22
2023-03-31T09:18:59.388Z,98392.81
2023-03-31T09:21:41.454Z,98391.53
2023-03-31T09:24:29.006Z,98393.16
2023-03-31T09:27:05.934Z,98380.34
2023-03-31T09:30:10.596Z,98376.06
2023-03-31T09:32:39.336Z,98378.72
2023-03-31T09:35:22.402Z,98369.66
2023-03-31T09:37:50.101Z,98360.56
2023-03-31T09:40:24.084Z,98362.19
2023-03-31T09:43:01.444Z,98360.09
2023-03-31T09:45:30.592Z,98342.81
2023-03-31T09:48:04.021Z,98363.47
2023-03-31T09:50:33.031Z,98338.91
2023-03-31T09:53:01.838Z,98332.00
2023-03-31T09:56:03.988Z,98317.59
2023-03-31T09:58:31.673Z,98336.09
2023-03-31T10:01:17.352Z,98324.06
2023-03-31T10:03:52.466Z,98323.09
2023-03-31T10:06:20.736Z,98318.88
2023-03-31T10:08:55.742Z,98333.72
2023-03-31T10:11:23.789Z,98324.69
2023-03-31T10:14:04.944Z,98347.25
2023-03-31T10:16:54.859Z,98353.75
2023-03-31T10:19:26.195Z,98345.31
2023-03-31T10:22:01.829Z,98336.69
2023-03-31T10:24:42.322Z,98317.56
2023-03-31T10:27:30.800Z,98330.06
2023-03-31T10:30:01.197Z,98329.16
2023-03-31T10:32:34.624Z,98316.28
2023-03-31T10:35:36.284Z,98295.09
2023-03-31T10:38:12.059Z,98287.38
2023-03-31T10:40:48.444Z,98273.25
2023-03-31T10:43:28.204Z,98280.56
2023-03-31T10:46:00.509Z,98322.44
2023-03-31T10:48:34.136Z,98403.44
2023-03-31T10:51:27.594Z,98401.38
2023-03-31T10:54:00.280Z,98390.59
2023-03-31T10:56:40.875Z,98353.25
2023-03-31T10:59:36.330Z,98364.59
2023-03-31T11:02:21.098Z,98350.13
2023-03-31T11:05:13.124Z,98366.38
2023-03-31T11:08:20.262Z,98347.47
2023-03-31T11:11:20.397Z,98340.72
2023-03-31T11:14:29.868Z,98354.03
2023-03-31T11:17:06.984Z,98355.19
2023-03-31T11:19:45.646Z,98344.75
2023-03-31T11:22:30.547Z,98343.47
2023-03-31T11:25:37.395Z,98330.25
2023-03-31T11:28:52.499Z,98332.16
2023-03-31T11:31:30.858Z,98329.38
2023-03-31T11:34:18.550Z,98328.16
2023-03-31T11:37:13.143Z,98341.38
2023-03-31T11:40:14.845Z,98330.44
2023-03-31T11:42:54.911Z,98351.31
2023-03-31T11:45:28.862Z,98323.72
2023-03-31T11:48:06.250Z,98335.66
2023-03-31T11:50:39.829Z,98343.88
2023-03-31T11:53:17.006Z,98337.53
2023-03-31T11:55:47.588Z,98339.25
2023-03-31T11:58:35.384Z,98325.88
2023-03-31T12:01:42.063Z,98331.72
2023-03-31T12:04:30.256Z,98339.31
2023-03-31T12:07:18.321Z,98314.66
2023-03-31T12:10:08.132Z,98309.66
2023-03-31T12:12:45.869Z,98309.00
2023-03-31T12:15:27.509Z,98316.91
2023-03-31T12:18:18.022Z,98306.66
2023-03-31T12:21:01.717Z,98316.63
2023-03-31T12:23:38.583Z,98303.72
2023-03-31T12:27:05.319Z,98297.94
2023-03-31T12:29:53.376Z,98300.75
2023-03-31T12:32:27.863Z,98296.34
2023-03-31T12:35:21.718Z,98282.88
2023-03-31T12:38:25.761Z,98279.63
2023-03-31T12:41:12.016Z,98297.75
2023-03-31T12:44:12.808Z,98272.19
2023-03-31T12:47:21.235Z,98271.38
2023-03-31T12:50:16.981Z,98275.03
2023-03-31T12:52:58.505Z,98277.44
2023-03-31T12:55:37.749Z,98275.34
2023-03-31T12:58:22.929Z,98288.00
2023-03-31T13:01:11.412Z,98278.94
2023-03-31T13:03:47.115Z,98283.94
2023-03-31T13:06:28.830Z,98275.72
2023-03-31T13:09:08.508Z,98293.34
2023-03-31T13:11:38.098Z,98292.88
2023-03-31T13:14:31.316Z,98297.97
2023-03-31T13:17:35.633Z,98279.06
2023-03-31T13:20:46.400Z,98289.63
2023-03-31T13:23:25.840Z,98295.22
2023-03-31T13:25:57.518Z,98277.66
2023-03-31T13:28:43.894Z,98278.56
2023-03-31T13:31:13.931Z,98279.94
2023-03-31T13:33:59.415Z,98274.25
2023-03-31T13:36:32.436Z,98259.16
2023-03-31T13:39:20.514Z,98272.59
2023-03-31T13:42:40.141Z,98259.09
2023-03-31T13:45:38.837Z,98238.63
2023-03-31T13:48:34.166Z,98242.31
2023-03-31T13:51:37.805Z,98246.19
2023-03-31T13:54:16.781Z,98249.53
2023-03-31T13:56:58.585Z,98242.25
2023-03-31T13:59:43.439Z,98244.91
2023-03-31T14:02:28.186Z,98243.44
2023-03-31T14:05:12.591Z,98227.94
2023-03-31T14:07:47.258Z,98226.41
2023-03-31T14:10:27.891Z,98209.41
2023-03-31T14:13:12.444Z,98201.44
2023-03-31T14:15:48.609Z,98203.88
2023-03-31T14:18:31.148Z,98186.84
2023-03-31T14:21:34.400Z,98179.69
2023-03-31T14:24:18.176Z,98175.78
2023-03-31T14:27:18.488Z,98191.13
2023-03-31T14:30:58.673Z,98191.16
2023-03-31T14:34:12.005Z,98193.63
2023-03-31T14:37:17.606Z,98195.22
2023-03-31T14:39:55.048Z,98200.25
2023-03-31T14:42:53.911Z,98202.94
2023-03-31T14:45:31.415Z,98207.72
2023-03-31T14:48:24.866Z,98213.38
2023-03-31T14:50:59.145Z,98199.16
2023-03-31T14:53:28.072Z,98194.78
2023-03-31T14:56:33.810Z,98190.44
2023-03-31T14:59:02.900Z,98182.94
2023-03-31T15:01:34.439Z,98186.03
2023-03-31T15:04:10.449Z,98184.88
2023-03-31T15:06:39.830Z,98190.75
2023-03-31T15:09:08.197Z,98195.28
2023-03-31T15:11:35.859Z,98195.28
2023-03-31T15:14:05.637Z,98192.03
2023-03-31T15:16:43.713Z,98192.53
2023-03-31T15:19:26.249Z,98183.34
2023-03-31T15:22:14.226Z,98190.56
2023-03-31T15:24:41.236Z,98203.88
2023-03-31T15:27:42.549Z,98202.00
2023-03-31T15:30:18.913Z,98211.59
2023-03-31T15:32:46.402Z,98215.56
2023-03-31T15:35:35.936Z,98219.28
2023-03-31T15:38:11.414Z,98219.53
2023-03-31T15:40:41.437Z,98215.47
2023-03-31T15:43:20.132Z,98222.44
2023-03-31T15:46:00.821Z,98219.69
2023-03-31T15:48:33.282Z,98219.13
2023-03-31T15:51:06.333Z,98206.47
2023-03-31T15:53:44.351Z,98213.09
2023-03-31T15:56:31.468Z,98206.34
2023-03-31T15:59:33.871Z,98210.81
2023-03-31T16:02:05.823Z,98207.00
2023-03-31T16:04:33.397Z,98203.97
2023-03-31T16:07:16.659Z,98206.91
2023-03-31T16:10:01.117Z,98213.56
2023-03-31T16:12:37.723Z,98220.16
2023-03-31T16:15:15.833Z,98219.06
2023-03-31T16:17:54.282Z,98229.41
2023-03-31T16:20:29.061Z,98235.22
2023-03-31T16:22:59.486Z,98232.22
2023-03-31T16:25:30.646Z,98222.59
2023-03-31T16:28:01.787Z,98227.94
2023-03-31T16:30:40.654Z,98217.47
2023-03-31T16:33:17.813Z,98217.72
2023-03-31T16:35:53.562Z,98219.81
2023-03-31T16:38:23.284Z,98207.50
2023-03-31T16:40:57.356Z,98202.16
2023-03-31T16:43:28.148Z,98217.63
2023-03-31T16:45:59.025Z,98221.09
2023-03-31T16:48:29.019Z,98228.31
2023-03-31T16:50:58.328Z,98236.34
2023-03-31T16:53:29.550Z,98249.69
2023-03-31T16:55:57.912Z,98246.22
2023-03-31T16:58:26.234Z,98262.94
2023-03-31T17:00:54.164Z,98249.84
2023-03-31T17:03:22.225Z,98247.06
2023-03-31T17:05:52.980Z,98252.06
2023-03-31T17:08:22.031Z,98272.28
2023-03-31T17:11:00.884Z,98268.13
2023-03-31T17:13:28.189Z,98266.41
2023-03-31T17:16:01.422Z,98290.09
2023-03-31T17:18:31.737Z,98267.59
2023-03-31T17:21:08.400Z,98263.19
2023-03-31T17:23:37.053Z,98260.38
2023-03-31T17:26:06.209Z,98253.91
2023-03-31T17:28:33.737Z,98270.63
2023-03-31T17:31:00.699Z,98267.59
2023-03-31T17:33:28.260Z,98265.97
2023-03-31T17:36:01.262Z,98273.28
2023-03-31T17:38:28.733Z,98276.44
2023-03-31T17:40:55.772Z,98272.59
2023-03-31T17:43:23.185Z,98274.34
2023-03-31T17:45:50.137Z,98287.09
2023-03-31T17:48:17.174Z,98280.59
2023-03-31T17:50:44.288Z,98279.22
2023-03-31T17:53:11.370Z,98278.84
2023-03-31T17:55:38.629Z,98293.47
2023-03-31T17:58:08.377Z,98290.25
2023-03-31T18:00:35.761Z,98294.97
2023-03-31T18:03:03.053Z,98283.16
2023-03-31T18:05:30.145Z,98284.38
2023-03-31T18:07:57.226Z,98286.47
2023-03-31T18:10:24.387Z,98296.81
2023-03-31T18:12:51.562Z,98296.19
2023-03-31T18:15:18.538Z,98309.78
2023-03-31T18:17:45.502Z,98302.25
2023-03-31T18:20:12.968Z,98306.16
2023-03-31T18:22:40.030Z,98310.91
2023-03-31T18:25:08.554Z,98305.22
2023-03-31T18:27:35.751Z,98314.25
2023-03-31T18:30:04.296Z,98306.72
2023-03-31T18:32:31.634Z,98313.31
2023-03-31T18:34:58.628Z,98304.97
2023-03-31T18:37:25.725Z,98312.41
2023-03-31T18:39:53.323Z,98316.06
2023-03-31T18:42:24.994Z,98318.16
2023-03-31T18:44:55.060Z,98315.72
2023-03-31T18:47:22.255Z,98309.81
2023-03-31T18:49:53.533Z,98306.56
2023-03-31T18:52:21.213Z,98318.03
2023-03-31T18:54:49.910Z,98329.72
2023-03-31T18:57:17.617Z,98324.06
2023-03-31T18:59:44.748Z,98321.97
2023-03-31T19:02:18.014Z,98317.91
2023-03-31T19:04:46.975Z,98308.88
2023-03-31T19:07:15.630Z,98309.91
2023-03-31T19:09:42.773Z,98312.78
2023-03-31T19:12:10.958Z,98326.94
2023-03-31T19:14:38.357Z,98327.97
2023-03-31T19:17:05.374Z,98324.50
2023-03-31T19:19:32.510Z,98326.13
2023-03-31T19:21:59.572Z,98310.94
2023-03-31T19:24:26.689Z,98315.44
2023-03-31T19:26:54.036Z,98316.25
2023-03-31T19:29:21.108Z,98323.44
2023-03-31T19:31:49.354Z,98318.13
2023-03-31T19:34:16.617Z,98320.78
2023-03-31T19:36:43.907Z,98320.78
2023-03-31T19:39:11.535Z,98320.78
2023-03-31T19:41:38.613Z,98320.78
2023-03-31T19:44:05.993Z,98324.06
2023-03-31T19:46:33.060Z,98322.19
2023-03-31T19:49:00.125Z,98321.97
2023-03-31T19:51:27.601Z,98332.63
2023-03-31T19:53:54.863Z,98337.97
2023-03-31T19:56:25.130Z,98335.31
2023-03-31T19:58:52.508Z,98340.06
2023-03-31T20:01:27.380Z,98335.16
2023-03-31T20:03:55.846Z,98331.91
2023-03-31T20:06:27.183Z,98325.16
2023-03-31T20:09:00.309Z,98326.66
2023-03-31T20:11:31.002Z,98318.28
2023-03-31T20:13:59.379Z,98320.38
2023-03-31T20:16:29.653Z,98311.19
2023-03-31T20:19:01.149Z,98317.00
2023-03-31T20:21:30.932Z,98317.22
2023-03-31T20:23:58.818Z,98312.31
2023-03-31T20:26:32.355Z,98317.88
2023-03-31T20:29:03.877Z,98318.94
2023-03-31T20:31:36.482Z,98326.94
2023-03-31T20:34:06.173Z,98322.41
2023-03-31T20:36:33.400Z,98313.38
2023-03-31T20:39:04.138Z,98312.56
2023-03-31T20:41:31.745Z,98319.50
2023-03-31T20:43:59.768Z,98319.50
2023-03-31T20:46:28.004Z,98315.00
2023-03-31T20:48:57.070Z,98320.09
2023-03-31T20:51:32.353Z,98324.41
2023-03-31T20:54:01.645Z,98319.09
2023-03-31T20:56:39.403Z,98322.75
2023-03-31T20:59:11.249Z,98325.41
2023-03-31T21:01:38.730Z,98329.94
2023-03-31T21:04:09.656Z,98333.88
2023-03-31T21:06:40.937Z,98333.88
2023-03-31T21:09:08.768Z,98330.63
2023-03-31T21:11:35.829Z,98330.63
2023-03-31T21:14:03.398Z,98327.16
2023-03-31T21:16:30.501Z,98333.28
2023-03-31T21:18:59.712Z,98330.03
2023-03-31T21:21:27.679Z,98336.38
2023-03-31T21:23:55.429Z,98336.38
2023-03-31T21:26:23.076Z,98325.97
2023-03-31T21:28:54.335Z,98327.81
2023-03-31T21:31:24.328Z,98328.03
2023-03-31T21:33:52.745Z,98336.84
2023-03-31T21:36:22.396Z,98329.91
2023-03-31T21:38:52.250Z,98331.75
2023-03-31T21:41:27.066Z,98329.91
2023-03-31T21:43:55.463Z,98334.41
2023-03-31T21:46:28.763Z,98336.03
2023-03-31T21:48:56.458Z,98334.78
2023-03-31T21:51:24.542Z,98330.03
2023-03-31T21:53:55.090Z,98331.69
2023-03-31T21:56:24.757Z,98332.25
2023-03-31T21:58:52.121Z,98333.88
2023-03-31T22:01:20.462Z,98331.78
2023-03-31T22:03:48.649Z,98338.75
2023-03-31T22:06:16.127Z,98336.69
2023-03-31T22:08:43.107Z,98344.44
2023-03-31T22:11:12.190Z,98355.91
2023-03-31T22:13:39.859Z,98348.50
2023-03-31T22:16:20.059Z,98348.50
2023-03-31T22:18:47.628Z,98346.66
2023-03-31T22:21:22.097Z,98348.50
2023-03-31T22:23:53.060Z,98346.44
2023-03-31T22:26:20.769Z,98352.81
2023-03-31T22:28:48.178Z,98353.84
2023-03-31T22:31:15.357Z,98360.81
2023-03-31T22:33:42.543Z,98358.16
2023-03-31T22:36:09.938Z,98355.50
2023-03-31T22:38:36.966Z,98357.94
2023-03-31T22:41:04.522Z,98364.06
2023-03-31T22:43:32.961Z,98366.16
2023-03-31T22:46:05.223Z,98365.09
2023-03-31T22:48:33.182Z,98371.47
2023-03-31T22:51:06.123Z,98373.09
2023-03-31T22:53:33.735Z,98370.44
2023-03-31T22:56:11.411Z,98373.09
2023-03-31T22:58:38.583Z,98371.47
2023-03-31T23:01:07.207Z,98372.28
2023-03-31T23:03:34.376Z,98375.16
2023-03-31T23:06:06.078Z,98364.50
2023-03-31T23:08:35.421Z,98370.06
2023-03-31T23:11:03.792Z,98369.25
2023-03-31T23:13:31.167Z,98377.25
2023-03-31T23:16:09.076Z,98366.00
2023-03-31T23:18:36.540Z,98369.47
2023-03-31T23:21:07.467Z,98365.19
2023-03-31T23:23:34.406Z,98365.38
2023-03-31T23:26:03.745Z,98362.72
2023-03-31T23:28:31.572Z,98360.06
2023-03-31T23:30:59.135Z,98362.72
2023-03-31T23:33:28.182Z,98364.38
2023-03-31T23:36:04.481Z,98368.06
2023-03-31T23:38:32.960Z,98364.38
2023-03-31T23:41:01.579Z,98359.03
2023-03-31T23:43:30.001Z,98355.09
2023-03-31T23:45:56.994Z,98355.09
2023-03-31T23:48:24.019Z,98355.09
2023-03-31T23:50:51.048Z,98356.72
2023-03-31T23:53:18.245Z,98358.34
2023-03-31T23:56:04.344Z,98359.16
2023-03-31T23:58:31.766Z,98353.84
